createdAt,value
2019-05-01T00:01:59.751Z,58.70
2019-05-01T00:04:41.171Z,56.30
2019-05-01T00:07:17.627Z,54.40
2019-05-01T00:09:47.487Z,54.00
2019-05-01T00:12:19.527Z,53.70
2019-05-01T00:14:52.461Z,55.40
2019-05-01T00:17:23.098Z,57.20
2019-05-01T00:19:53.232Z,58.10
2019-05-01T00:22:23.846Z,61.00
2019-05-01T00:24:53.564Z,60.80
2019-05-01T00:27:23.580Z,62.70
2019-05-01T00:29:56.726Z,64.70
2019-05-01T00:32:29.665Z,65.90
2019-05-01T00:34:59.594Z,68.10
2019-05-01T00:37:29.912Z,69.50
2019-05-01T00:39:59.717Z,71.90
2019-05-01T00:42:29.485Z,74.00
2019-05-01T00:44:59.558Z,77.10
2019-05-01T00:47:29.321Z,82.00
2019-05-01T00:49:59.222Z,85.10
2019-05-01T00:52:29.290Z,88.30
2019-05-01T00:55:17.049Z,90.50
2019-05-01T00:57:57.108Z,91.40
2019-05-01T01:00:46.099Z,91.80
2019-05-01T01:03:15.960Z,93.10
2019-05-01T01:05:46.070Z,95.40
2019-05-01T01:08:16.137Z,96.50
2019-05-01T01:10:46.211Z,97.70
2019-05-01T01:13:16.203Z,98.50
2019-05-01T01:15:46.000Z,98.60
2019-05-01T01:18:19.069Z,99.30
2019-05-01T01:20:49.061Z,99.90
2019-05-01T01:23:18.851Z,99.90
2019-05-01T01:25:51.894Z,99.90
2019-05-01T01:28:22.030Z,99.90
2019-05-01T01:30:56.533Z,99.90
2019-05-01T01:33:26.160Z,99.90
2019-05-01T01:35:57.529Z,99.90
2019-05-01T01:38:28.645Z,99.90
2019-05-01T01:41:02.018Z,99.90
2019-05-01T01:43:42.145Z,99.90
2019-05-01T01:46:15.192Z,99.90
2019-05-01T01:48:45.189Z,99.90
2019-05-01T01:51:15.693Z,99.90
2019-05-01T01:53:46.064Z,99.90
2019-05-01T01:56:21.318Z,99.90
2019-05-01T01:58:52.389Z,99.90
2019-05-01T02:01:39.622Z,99.90
2019-05-01T02:04:29.175Z,99.90
2019-05-01T02:06:59.118Z,99.90
2019-05-01T02:09:28.990Z,99.90
2019-05-01T02:11:59.015Z,99.90
2019-05-01T02:14:29.068Z,99.90
2019-05-01T02:17:02.318Z,99.90
2019-05-01T02:19:33.824Z,99.90
2019-05-01T02:22:03.832Z,99.90
2019-05-01T02:24:34.492Z,99.90
2019-05-01T02:27:08.525Z,99.90
2019-05-01T02:29:44.835Z,99.90
2019-05-01T02:32:18.131Z,99.90
2019-05-01T02:34:49.627Z,99.90
2019-05-01T02:37:20.955Z,99.90
2019-05-01T02:39:56.391Z,99.90
2019-05-01T02:42:29.926Z,99.90
2019-05-01T02:45:02.077Z,99.90
2019-05-01T02:47:37.954Z,99.90
2019-05-01T02:50:12.036Z,99.90
2019-05-01T02:52:43.910Z,99.90
2019-05-01T02:55:30.892Z,99.90
2019-05-01T02:58:01.568Z,99.90
2019-05-01T03:00:31.876Z,99.90
2019-05-01T03:03:02.807Z,99.90
2019-05-01T03:05:33.012Z,99.90
2019-05-01T03:08:03.711Z,99.90
2019-05-01T03:10:34.276Z,99.90
2019-05-01T03:13:05.058Z,99.90
2019-05-01T03:15:37.383Z,99.90
2019-05-01T03:18:23.207Z,99.90
2019-05-01T03:21:04.661Z,99.90
2019-05-01T03:23:38.325Z,99.90
2019-05-01T03:26:08.421Z,99.90
2019-05-01T03:28:38.549Z,99.90
2019-05-01T03:31:08.765Z,99.90
2019-05-01T03:33:40.833Z,99.90
2019-05-01T03:36:13.370Z,99.90
2019-05-01T03:38:46.470Z,99.90
2019-05-01T03:41:16.842Z,99.90
2019-05-01T03:43:47.371Z,99.90
2019-05-01T03:46:18.520Z,99.90
2019-05-01T03:48:48.400Z,99.90
2019-05-01T03:51:18.370Z,99.90
2019-05-01T03:53:52.134Z,99.90
2019-05-01T03:56:23.615Z,99.90
2019-05-01T03:58:54.006Z,99.90
2019-05-01T04:01:38.709Z,99.90
2019-05-01T04:04:12.155Z,99.90
2019-05-01T04:06:42.262Z,99.90
2019-05-01T04:09:17.276Z,99.90
2019-05-01T04:11:50.800Z,99.90
2019-05-01T04:14:22.311Z,99.90
2019-05-01T04:16:58.488Z,99.90
2019-05-01T04:19:28.538Z,99.90
2019-05-01T04:22:05.281Z,99.90
2019-05-01T04:24:35.852Z,99.90
2019-05-01T04:27:07.603Z,99.90
2019-05-01T04:29:50.229Z,99.90
2019-05-01T04:32:28.838Z,99.90
2019-05-01T04:35:24.513Z,99.90
2019-05-01T04:37:58.857Z,99.90
2019-05-01T04:40:30.079Z,99.90
2019-05-01T04:42:59.862Z,99.90
2019-05-01T04:45:29.766Z,99.90
2019-05-01T04:47:59.841Z,99.90
2019-05-01T04:50:30.021Z,99.90
2019-05-01T04:53:00.367Z,99.90
2019-05-01T04:55:31.696Z,99.90
2019-05-01T04:58:02.069Z,99.90
2019-05-01T05:00:34.442Z,99.90
2019-05-01T05:03:08.417Z,99.90
2019-05-01T05:05:38.518Z,99.90
2019-05-01T05:08:09.957Z,99.90
2019-05-01T05:10:39.812Z,99.90
2019-05-01T05:13:27.748Z,99.90
2019-05-01T05:16:09.282Z,99.90
2019-05-01T05:18:39.248Z,99.90
2019-05-01T05:21:09.384Z,99.90
2019-05-01T05:23:40.882Z,99.90
2019-05-01T05:26:12.394Z,99.90
2019-05-01T05:28:44.220Z,99.90
2019-05-01T05:31:15.128Z,99.90
2019-05-01T05:33:48.512Z,99.90
2019-05-01T05:36:22.310Z,99.90
2019-05-01T05:39:05.340Z,99.90
2019-05-01T05:41:37.038Z,99.90
2019-05-01T05:44:07.853Z,99.90
2019-05-01T05:46:37.960Z,99.90
2019-05-01T05:49:08.329Z,99.90
2019-05-01T05:51:54.974Z,99.90
2019-05-01T05:54:45.318Z,99.90
2019-05-01T05:57:23.906Z,99.90
2019-05-01T06:00:00.228Z,99.90
2019-05-01T06:02:52.197Z,99.90
2019-05-01T06:05:46.428Z,99.90
2019-05-01T06:08:24.178Z,99.90
2019-05-01T06:11:13.041Z,99.90
2019-05-01T06:14:10.841Z,99.90
2019-05-01T06:16:54.066Z,99.90
2019-05-01T06:19:49.772Z,99.90
2019-05-01T06:22:30.520Z,99.90
2019-05-01T06:25:06.578Z,99.90
2019-05-01T06:27:37.117Z,99.90
2019-05-01T06:30:11.033Z,99.90
2019-05-01T06:32:40.479Z,99.90
2019-05-01T06:35:10.473Z,99.90
2019-05-01T06:38:00.224Z,99.90
2019-05-01T06:40:58.159Z,99.90
2019-05-01T06:44:05.023Z,99.90
2019-05-01T06:46:53.394Z,99.90
2019-05-01T06:49:35.171Z,99.90
2019-05-01T06:52:05.855Z,99.90
2019-05-01T06:54:36.432Z,99.90
2019-05-01T06:57:06.859Z,99.90
2019-05-01T06:59:39.386Z,99.90
2019-05-01T07:02:12.403Z,99.90
2019-05-01T07:04:43.629Z,99.90
2019-05-01T07:07:25.263Z,99.90
2019-05-01T07:09:49.356Z,99.90
2019-05-01T07:12:23.994Z,99.90
2019-05-01T07:14:53.547Z,99.90
2019-05-01T07:17:23.795Z,99.90
2019-05-01T07:20:18.789Z,99.90
2019-05-01T07:22:49.095Z,99.90
2019-05-01T07:25:18.957Z,99.90
2019-05-01T07:27:48.734Z,99.90
2019-05-01T07:30:33.338Z,99.90
2019-05-01T07:33:03.399Z,99.90
2019-05-01T07:35:36.750Z,99.90
2019-05-01T07:38:05.008Z,99.90
2019-05-01T07:40:35.235Z,99.90
2019-05-01T07:43:12.840Z,99.90
2019-05-01T07:45:50.917Z,99.90
2019-05-01T07:48:36.070Z,99.90
2019-05-01T07:51:06.912Z,99.90
2019-05-01T07:53:37.938Z,99.90
2019-05-01T07:56:09.654Z,99.90
2019-05-01T07:58:39.682Z,99.90
2019-05-01T08:01:21.206Z,99.90
2019-05-01T08:03:50.936Z,99.90
2019-05-01T08:06:21.443Z,99.90
2019-05-01T08:08:52.408Z,99.90
2019-05-01T08:11:22.578Z,99.90
2019-05-01T08:13:53.472Z,99.90
2019-05-01T08:16:23.480Z,99.90
2019-05-01T08:19:12.850Z,99.90
2019-05-01T08:21:56.895Z,99.90
2019-05-01T08:24:25.493Z,99.90
2019-05-01T08:26:55.359Z,99.90
2019-05-01T08:29:45.956Z,99.90
2019-05-01T08:32:38.949Z,99.90
2019-05-01T08:35:09.740Z,99.90
2019-05-01T08:37:39.529Z,99.90
2019-05-01T08:40:09.472Z,99.90
2019-05-01T08:42:42.651Z,99.90
2019-05-01T08:45:29.323Z,99.90
2019-05-01T08:48:04.583Z,99.90
2019-05-01T08:50:34.402Z,99.90
2019-05-01T08:53:04.169Z,99.90
2019-05-01T08:55:34.027Z,99.90
2019-05-01T08:58:03.906Z,99.90
2019-05-01T09:00:35.952Z,99.90
2019-05-01T09:03:08.513Z,99.90
2019-05-01T09:05:36.934Z,99.90
2019-05-01T09:08:07.233Z,99.90
2019-05-01T09:10:40.910Z,99.90
2019-05-01T09:13:12.991Z,99.90
2019-05-01T09:15:43.659Z,99.90
2019-05-01T09:18:14.489Z,99.90
2019-05-01T09:20:45.982Z,99.90
2019-05-01T09:23:16.192Z,99.90
2019-05-01T09:25:54.591Z,99.90
2019-05-01T09:28:28.999Z,99.50
2019-05-01T09:31:02.275Z,99.30
2019-05-01T09:33:32.458Z,99.30
2019-05-01T09:36:02.294Z,99.30
2019-05-01T09:38:32.066Z,99.70
2019-05-01T09:41:01.862Z,99.70
2019-05-01T09:43:35.490Z,98.90
2019-05-01T09:46:03.874Z,99.00
2019-05-01T09:48:34.673Z,99.00
2019-05-01T09:51:16.261Z,98.90
2019-05-01T09:54:05.586Z,98.90
2019-05-01T09:56:34.513Z,99.20
2019-05-01T09:59:04.295Z,99.50
2019-05-01T10:01:34.558Z,98.70
2019-05-01T10:04:06.645Z,98.50
2019-05-01T10:06:36.547Z,97.70
2019-05-01T10:09:11.943Z,97.90
2019-05-01T10:11:40.662Z,98.50
2019-05-01T10:14:11.777Z,99.50
2019-05-01T10:16:41.647Z,99.40
2019-05-01T10:19:11.910Z,99.00
2019-05-01T10:21:41.889Z,98.50
2019-05-01T10:24:11.734Z,97.80
2019-05-01T10:26:43.859Z,97.20
2019-05-01T10:29:43.744Z,96.90
2019-05-01T10:32:21.542Z,97.00
2019-05-01T10:35:03.761Z,97.30
2019-05-01T10:37:35.376Z,97.60
2019-05-01T10:40:06.143Z,97.00
2019-05-01T10:42:36.839Z,97.90
2019-05-01T10:45:07.397Z,98.30
2019-05-01T10:47:37.221Z,98.60
2019-05-01T10:50:07.371Z,98.70
2019-05-01T10:52:37.365Z,98.20
2019-05-01T10:55:07.328Z,98.10
2019-05-01T10:57:40.136Z,98.40
2019-05-01T11:00:10.281Z,98.20
2019-05-01T11:02:40.854Z,98.60
2019-05-01T11:05:11.442Z,98.30
2019-05-01T11:07:41.440Z,98.20
2019-05-01T11:10:11.482Z,97.50
2019-05-01T11:12:41.378Z,98.00
2019-05-01T11:15:11.474Z,97.40
2019-05-01T11:17:41.428Z,97.00
2019-05-01T11:20:11.436Z,96.90
2019-05-01T11:22:42.246Z,96.30
2019-05-01T11:25:13.207Z,96.50
2019-05-01T11:27:43.093Z,95.80
2019-05-01T11:30:28.450Z,96.30
2019-05-01T11:33:17.297Z,96.90
2019-05-01T11:36:14.615Z,97.40
2019-05-01T11:38:58.126Z,97.70
2019-05-01T11:41:32.412Z,96.50
2019-05-01T11:44:02.244Z,95.80
2019-05-01T11:46:32.217Z,96.40
2019-05-01T11:49:02.090Z,96.90
2019-05-01T11:51:32.013Z,96.00
2019-05-01T11:54:03.617Z,95.40
2019-05-01T11:56:37.578Z,94.80
2019-05-01T11:59:07.770Z,93.90
2019-05-01T12:01:37.934Z,92.60
2019-05-01T12:04:07.746Z,93.20
2019-05-01T12:06:37.676Z,93.80
2019-05-01T12:09:08.022Z,93.50
2019-05-01T12:11:41.386Z,93.10
2019-05-01T12:14:12.215Z,93.50
2019-05-01T12:17:00.399Z,93.20
2019-05-01T12:19:30.578Z,93.10
2019-05-01T12:22:00.400Z,93.10
2019-05-01T12:24:30.386Z,92.80
2019-05-01T12:27:03.553Z,92.60
2019-05-01T12:29:33.776Z,92.80
2019-05-01T12:32:06.759Z,92.70
2019-05-01T12:34:36.662Z,92.40
2019-05-01T12:37:18.730Z,92.50
2019-05-01T12:39:48.518Z,92.50
2019-05-01T12:42:20.403Z,92.20
2019-05-01T12:44:51.953Z,92.30
2019-05-01T12:47:44.769Z,92.60
2019-05-01T12:50:15.028Z,92.60
2019-05-01T12:52:59.719Z,92.50
2019-05-01T12:55:36.148Z,92.10
2019-05-01T12:58:06.133Z,91.50
2019-05-01T13:00:43.359Z,91.20
2019-05-01T13:03:13.468Z,91.00
2019-05-01T13:05:43.480Z,91.40
2019-05-01T13:08:13.413Z,90.90
2019-05-01T13:10:43.453Z,91.70
2019-05-01T13:13:13.841Z,92.30
2019-05-01T13:15:43.680Z,92.60
2019-05-01T13:18:13.424Z,93.00
2019-05-01T13:20:43.235Z,93.40
2019-05-01T13:23:13.080Z,93.50
2019-05-01T13:25:43.528Z,93.40
2019-05-01T13:28:31.363Z,93.30
2019-05-01T13:31:19.735Z,93.20
2019-05-01T13:33:49.759Z,93.30
2019-05-01T13:36:19.547Z,92.90
2019-05-01T13:38:49.361Z,92.60
2019-05-01T13:41:19.365Z,92.60
2019-05-01T13:43:49.351Z,92.50
2019-05-01T13:46:19.171Z,92.30
2019-05-01T13:48:48.950Z,92.50
2019-05-01T13:51:18.759Z,92.70
2019-05-01T13:53:48.486Z,93.00
2019-05-01T13:56:21.093Z,92.90
2019-05-01T13:58:51.069Z,93.00
2019-05-01T14:01:21.150Z,93.10
2019-05-01T14:03:51.007Z,93.30
2019-05-01T14:06:20.847Z,93.70
2019-05-01T14:08:50.697Z,93.60
2019-05-01T14:11:23.539Z,92.90
2019-05-01T14:13:53.519Z,92.90
2019-05-01T14:16:23.304Z,92.80
2019-05-01T14:18:53.097Z,92.10
2019-05-01T14:21:48.131Z,92.30
2019-05-01T14:24:42.853Z,92.40
2019-05-01T14:27:12.751Z,92.30
2019-05-01T14:29:42.474Z,91.80
2019-05-01T14:32:12.359Z,92.50
2019-05-01T14:34:42.408Z,92.30
2019-05-01T14:37:12.493Z,92.40
2019-05-01T14:39:42.459Z,92.40
2019-05-01T14:42:12.332Z,91.50
2019-05-01T14:44:42.308Z,92.10
2019-05-01T14:47:12.466Z,92.30
2019-05-01T14:49:44.149Z,91.50
2019-05-01T14:52:14.858Z,92.00
2019-05-01T14:54:44.949Z,91.90
2019-05-01T14:57:15.083Z,91.60
2019-05-01T14:59:45.525Z,91.60
2019-05-01T15:02:18.976Z,91.60
2019-05-01T15:04:49.339Z,91.20
2019-05-01T15:07:19.123Z,91.20
2019-05-01T15:09:49.178Z,91.10
2019-05-01T15:12:21.285Z,91.40
2019-05-01T15:15:01.659Z,91.90
2019-05-01T15:17:37.245Z,91.60
2019-05-01T15:20:10.982Z,91.80
2019-05-01T15:22:41.163Z,91.80
2019-05-01T15:25:11.387Z,91.60
2019-05-01T15:27:41.283Z,91.80
2019-05-01T15:30:13.026Z,91.60
2019-05-01T15:32:43.078Z,91.70
2019-05-01T15:35:16.683Z,92.20
2019-05-01T15:37:56.478Z,91.70
2019-05-01T15:40:28.815Z,91.60
2019-05-01T15:43:06.080Z,91.50
2019-05-01T15:45:35.864Z,91.10
2019-05-01T15:48:11.796Z,90.90
2019-05-01T15:50:44.741Z,91.00
2019-05-01T15:53:13.627Z,90.60
2019-05-01T15:55:43.481Z,90.50
2019-05-01T15:58:13.496Z,90.80
2019-05-01T16:00:43.209Z,88.70
2019-05-01T16:03:13.111Z,86.70
2019-05-01T16:05:47.886Z,87.10
2019-05-01T16:08:18.245Z,87.50
2019-05-01T16:10:59.202Z,89.10
2019-05-01T16:13:29.231Z,88.20
2019-05-01T16:15:59.340Z,85.30
2019-05-01T16:18:29.293Z,83.50
2019-05-01T16:20:59.332Z,84.20
2019-05-01T16:23:29.269Z,83.70
2019-05-01T16:25:59.273Z,83.50
2019-05-01T16:28:29.072Z,84.80
2019-05-01T16:30:59.117Z,83.10
2019-05-01T16:33:29.033Z,81.60
2019-05-01T16:35:58.911Z,81.80
2019-05-01T16:38:37.874Z,81.00
2019-05-01T16:41:08.764Z,81.30
2019-05-01T16:43:39.038Z,81.10
2019-05-01T16:46:08.970Z,80.80
2019-05-01T16:48:38.752Z,78.40
2019-05-01T16:51:09.158Z,76.90
2019-05-01T16:53:38.902Z,77.10
2019-05-01T16:56:08.814Z,76.60
2019-05-01T16:58:40.672Z,77.70
2019-05-01T17:01:17.047Z,79.30
2019-05-01T17:04:15.343Z,79.60
2019-05-01T17:07:07.362Z,80.70
2019-05-01T17:09:55.348Z,81.70
2019-05-01T17:12:29.257Z,82.00
2019-05-01T17:14:59.278Z,81.80
2019-05-01T17:17:29.895Z,81.60
2019-05-01T17:20:00.700Z,81.40
2019-05-01T17:22:30.452Z,80.80
2019-05-01T17:25:00.272Z,80.80
2019-05-01T17:27:31.645Z,79.40
2019-05-01T17:30:01.660Z,80.20
2019-05-01T17:32:31.399Z,80.40
2019-05-01T17:35:01.868Z,80.80
2019-05-01T17:37:32.637Z,79.40
2019-05-01T17:40:04.321Z,78.90
2019-05-01T17:42:37.707Z,79.30
2019-05-01T17:45:05.484Z,80.00
2019-05-01T17:47:38.223Z,80.00
2019-05-01T17:50:11.275Z,80.30
2019-05-01T17:52:41.167Z,80.70
2019-05-01T17:55:11.284Z,81.40
2019-05-01T17:57:41.069Z,82.20
2019-05-01T18:00:36.327Z,83.30
2019-05-01T18:03:17.741Z,84.20
2019-05-01T18:05:56.226Z,85.60
2019-05-01T18:08:28.304Z,86.70
2019-05-01T18:10:58.319Z,88.50
2019-05-01T18:13:28.175Z,90.20
2019-05-01T18:15:58.253Z,90.70
2019-05-01T18:18:28.019Z,91.30
2019-05-01T18:20:57.951Z,91.90
2019-05-01T18:23:47.682Z,92.40
2019-05-01T18:26:43.193Z,93.00
2019-05-01T18:29:29.508Z,93.50
2019-05-01T18:32:02.990Z,94.20
2019-05-01T18:34:38.350Z,94.60
2019-05-01T18:37:17.234Z,95.40
2019-05-01T18:39:46.942Z,95.70
2019-05-01T18:42:17.129Z,96.10
2019-05-01T18:44:48.759Z,96.40
2019-05-01T18:47:18.762Z,96.60
2019-05-01T18:49:48.822Z,96.90
2019-05-01T18:52:18.750Z,97.10
2019-05-01T18:54:49.335Z,97.40
2019-05-01T18:57:19.314Z,97.60
2019-05-01T18:59:49.133Z,97.90
2019-05-01T19:02:24.998Z,98.40
2019-05-01T19:04:57.057Z,98.80
2019-05-01T19:07:26.976Z,99.20
2019-05-01T19:09:56.885Z,99.20
2019-05-01T19:12:26.916Z,99.20
2019-05-01T19:15:00.415Z,99.00
2019-05-01T19:17:32.750Z,99.20
2019-05-01T19:20:02.987Z,99.40
2019-05-01T19:22:32.971Z,99.60
2019-05-01T19:25:02.921Z,99.90
2019-05-01T19:27:33.032Z,99.90
2019-05-01T19:30:03.019Z,99.90
2019-05-01T19:32:33.164Z,99.90
2019-05-01T19:35:03.185Z,99.90
2019-05-01T19:37:34.807Z,99.90
2019-05-01T19:40:06.429Z,99.90
2019-05-01T19:42:36.362Z,99.90
2019-05-01T19:45:06.532Z,99.90
2019-05-01T19:47:36.509Z,99.90
2019-05-01T19:50:09.477Z,99.90
2019-05-01T19:52:39.891Z,99.90
2019-05-01T19:55:11.774Z,99.90
2019-05-01T19:57:41.708Z,99.90
2019-05-01T20:00:17.240Z,99.90
2019-05-01T20:02:47.602Z,99.90
2019-05-01T20:05:21.947Z,99.90
2019-05-01T20:07:56.197Z,99.90
2019-05-01T20:10:23.528Z,99.90
2019-05-01T20:12:53.431Z,99.90
2019-05-01T20:15:25.215Z,99.90
2019-05-01T20:17:54.931Z,99.90
2019-05-01T20:20:25.504Z,99.90
2019-05-01T20:22:55.479Z,99.90
2019-05-01T20:25:25.468Z,99.90
2019-05-01T20:27:57.275Z,99.90
2019-05-01T20:30:26.778Z,99.90
2019-05-01T20:32:58.252Z,99.90
2019-05-01T20:35:30.090Z,99.90
2019-05-01T20:37:59.896Z,99.90
2019-05-01T20:40:30.378Z,99.90
2019-05-01T20:43:01.092Z,99.90
2019-05-01T20:45:32.198Z,99.90
2019-05-01T20:48:02.332Z,99.90
2019-05-01T20:50:32.277Z,99.90
2019-05-01T20:53:03.524Z,99.90
2019-05-01T20:55:33.344Z,99.90
2019-05-01T20:58:16.184Z,99.90
2019-05-01T21:00:48.204Z,99.90
2019-05-01T21:03:19.621Z,99.90
2019-05-01T21:05:55.335Z,99.90
2019-05-01T21:08:44.322Z,99.90
2019-05-01T21:11:18.029Z,99.90
2019-05-01T21:13:47.907Z,99.90
2019-05-01T21:16:18.004Z,99.90
2019-05-01T21:18:47.919Z,99.90
2019-05-01T21:21:17.656Z,99.90
2019-05-01T21:23:48.141Z,99.90
2019-05-01T21:26:18.794Z,99.90
2019-05-01T21:28:51.583Z,99.90
2019-05-01T21:31:24.020Z,99.90
2019-05-01T21:33:54.070Z,99.90
2019-05-01T21:36:26.043Z,99.90
2019-05-01T21:38:55.819Z,99.90
2019-05-01T21:41:25.489Z,99.90
2019-05-01T21:43:55.255Z,99.90
2019-05-01T21:46:25.026Z,99.90
2019-05-01T21:48:54.776Z,99.90
2019-05-01T21:51:24.697Z,99.90
2019-05-01T21:53:54.436Z,99.90
2019-05-01T21:56:24.142Z,99.90
2019-05-01T21:58:55.021Z,99.90
2019-05-01T22:01:24.908Z,99.90
2019-05-01T22:03:57.120Z,99.90
2019-05-01T22:06:26.103Z,99.90
2019-05-01T22:08:55.857Z,99.90
2019-05-01T22:11:25.705Z,99.90
2019-05-01T22:14:00.199Z,99.90
2019-05-01T22:16:28.405Z,99.90
2019-05-01T22:19:07.314Z,99.90
2019-05-01T22:21:59.311Z,99.90
2019-05-01T22:24:43.386Z,99.90
2019-05-01T22:27:18.745Z,99.90
2019-05-01T22:29:57.741Z,99.90
2019-05-01T22:32:38.242Z,99.90
2019-05-01T22:35:35.497Z,99.90
2019-05-01T22:38:08.821Z,99.90
2019-05-01T22:40:50.305Z,99.90
2019-05-01T22:43:20.013Z,99.90
2019-05-01T22:45:51.027Z,99.90
2019-05-01T22:48:20.731Z,99.90
2019-05-01T22:50:53.895Z,99.90
2019-05-01T22:53:23.759Z,99.90
2019-05-01T22:55:57.312Z,99.90
2019-05-01T22:58:25.039Z,99.90
2019-05-01T23:00:58.335Z,99.90
2019-05-01T23:03:40.516Z,99.90
2019-05-01T23:06:06.328Z,99.90
2019-05-01T23:08:37.527Z,99.90
2019-05-01T23:11:19.276Z,99.90
2019-05-01T23:13:39.849Z,99.90
2019-05-01T23:16:11.091Z,99.90
2019-05-01T23:18:40.794Z,99.90
2019-05-01T23:21:14.650Z,99.90
2019-05-01T23:23:42.684Z,99.90
2019-05-01T23:26:16.812Z,99.90
2019-05-01T23:28:44.008Z,99.90
2019-05-01T23:31:14.070Z,99.90
2019-05-01T23:33:45.814Z,99.90
2019-05-01T23:36:23.350Z,99.90
2019-05-01T23:38:46.849Z,99.90
2019-05-01T23:41:16.733Z,99.90
2019-05-01T23:43:46.912Z,99.90
2019-05-01T23:46:18.275Z,99.90
2019-05-01T23:48:48.107Z,99.90
2019-05-01T23:51:18.099Z,99.90
2019-05-01T23:53:48.508Z,99.90
2019-05-01T23:56:20.309Z,99.90
2019-05-01T23:58:50.266Z,99.90
